Time;durP1;ratioP1;P1;durP2;ratioP2;P2;SDS_P1;SDS_P2;PMS_P1;PMS_P2;Temp;Humidity;BMP_temperature;BMP_pressure;BME280_temperature;BME280_humidity;BME280_pressure;Samples;Min_cycle;Max_cycle;Signal;HPM_P1;HPM_P2
2021/10/27 00:00:30;;;;;;;2.03;1.60;;;;;;;;;;5085073;28;20028;-51
2021/10/27 00:02:57;;;;;;;2.75;1.40;;;;;;;;;;5083591;28;20556;-48
2021/10/27 00:05:23;;;;;;;1.60;1.42;;;;;;;;;;5085181;28;20047;-50
2021/10/27 00:07:50;;;;;;;2.08;1.50;;;;;;;;;;5081995;28;20051;-52
2021/10/27 00:10:17;;;;;;;2.28;1.35;;;;;;;;;;5065050;28;20563;-52
2021/10/27 00:12:45;;;;;;;2.58;1.55;;;;;;;;;;5066343;28;20028;-51
2021/10/27 00:15:12;;;;;;;2.53;1.27;;;;;;;;;;5068587;28;20484;-49
2021/10/27 00:17:39;;;;;;;2.60;1.35;;;;;;;;;;5068492;28;20032;-49
2021/10/27 00:20:05;;;;;;;2.38;1.70;;;;;;;;;;5068339;28;20031;-50
2021/10/27 00:22:32;;;;;;;2.13;1.52;;;;;;;;;;5068766;28;20107;-51
2021/10/27 00:24:59;;;;;;;2.78;1.67;;;;;;;;;;5068414;28;20036;-52
2021/10/27 00:27:25;;;;;;;2.58;1.55;;;;;;;;;;5069240;28;20028;-51
2021/10/27 00:29:51;;;;;;;2.05;1.80;;;;;;;;;;5087999;28;20040;-50
2021/10/27 00:32:17;;;;;;;1.90;1.42;;;;;;;;;;5086933;28;20318;-52
2021/10/27 00:34:44;;;;;;;2.67;1.50;;;;;;;;;;5088521;28;20103;-52
2021/10/27 00:37:10;;;;;;;2.08;1.52;;;;;;;;;;5088307;28;20036;-52
2021/10/27 00:39:36;;;;;;;2.85;1.55;;;;;;;;;;5087363;28;20503;-51
2021/10/27 00:42:03;;;;;;;1.45;1.30;;;;;;;;;;5088431;28;20028;-52
2021/10/27 00:44:30;;;;;;;2.90;1.50;;;;;;;;;;5088432;28;20502;-52
2021/10/27 00:47:00;;;;;;;3.60;1.70;;;;;;;;;;5088483;28;20032;-50
2021/10/27 00:49:29;;;;;;;2.22;1.50;;;;;;;;;;5075500;28;20032;-51
2021/10/27 00:51:55;;;;;;;2.47;1.55;;;;;;;;;;5068496;28;20024;-52
2021/10/27 00:54:22;;;;;;;2.63;1.67;;;;;;;;;;5068258;28;20103;-51
2021/10/27 00:56:48;;;;;;;3.50;1.75;;;;;;;;;;5067785;28;20616;-51
2021/10/27 00:59:15;;;;;;;2.05;1.88;;;;;;;;;;5067293;28;20056;-51
2021/10/27 01:01:42;;;;;;;2.38;1.52;;;;;;;;;;5068034;28;20021;-52
2021/10/27 01:04:09;;;;;;;2.65;1.50;;;;;;;;;;5067204;28;20033;-51
2021/10/27 01:06:36;;;;;;;4.60;1.67;;;;;;;;;;5068005;28;20019;-51
2021/10/27 01:09:03;;;;;;;1.63;1.52;;;;;;;;;;5067447;28;20024;-48
2021/10/27 01:11:29;;;;;;;2.10;1.65;;;;;;;;;;5069230;28;20104;-51
2021/10/27 01:13:55;;;;;;;1.50;1.30;;;;;;;;;;5069328;28;20024;-52
2021/10/27 01:16:21;;;;;;;1.65;1.30;;;;;;;;;;5069749;28;20021;-53
2021/10/27 01:18:50;;;;;;;2.47;1.60;;;;;;;;;;5074861;28;20469;-52
2021/10/27 01:21:20;;;;;;;2.33;1.38;;;;;;;;;;5089013;28;20073;-51
2021/10/27 01:23:46;;;;;;;1.40;1.30;;;;;;;;;;5069184;28;20079;-52
2021/10/27 01:26:12;;;;;;;1.75;1.45;;;;;;;;;;5068808;28;20103;-51
2021/10/27 01:28:40;;;;;;;2.13;1.50;;;;;;;;;;5071723;28;20115;-51
2021/10/27 01:31:06;;;;;;;2.10;1.70;;;;;;;;;;5087446;28;20020;-50
2021/10/27 01:33:32;;;;;;;1.90;1.42;;;;;;;;;;5089057;28;20493;-52
2021/10/27 01:35:58;;;;;;;2.53;1.58;;;;;;;;;;5089089;28;20036;-51
2021/10/27 01:38:24;;;;;;;2.00;1.30;;;;;;;;;;5085261;28;20028;-52
2021/10/27 01:40:50;;;;;;;1.92;1.40;;;;;;;;;;5069404;28;20028;-50
2021/10/27 01:43:16;;;;;;;2.30;1.35;;;;;;;;;;5068255;28;20392;-51
2021/10/27 01:45:42;;;;;;;1.55;1.40;;;;;;;;;;5067855;28;20447;-51
2021/10/27 01:48:08;;;;;;;2.70;1.42;;;;;;;;;;5068285;28;20043;-52
2021/10/27 01:50:35;;;;;;;1.55;1.45;;;;;;;;;;5085763;28;20522;-52
2021/10/27 01:53:01;;;;;;;1.75;1.52;;;;;;;;;;5088364;28;20024;-52
2021/10/27 01:55:28;;;;;;;1.65;1.48;;;;;;;;;;5088805;28;20032;-52
2021/10/27 01:57:54;;;;;;;3.65;1.33;;;;;;;;;;5089305;28;20050;-51
2021/10/27 02:00:21;;;;;;;1.67;1.40;;;;;;;;;;5087653;28;20020;-51
2021/10/27 02:02:47;;;;;;;1.90;1.23;;;;;;;;;;5088492;28;20600;-51
2021/10/27 02:05:14;;;;;;;1.80;1.50;;;;;;;;;;5086388;28;20071;-53
2021/10/27 02:07:40;;;;;;;3.60;1.60;;;;;;;;;;5088330;28;20024;-52
2021/10/27 02:10:08;;;;;;;2.40;1.63;;;;;;;;;;5086971;28;20039;-51
2021/10/27 02:12:35;;;;;;;2.78;1.60;;;;;;;;;;5088250;28;20055;-52
2021/10/27 02:15:01;;;;;;;2.55;1.40;;;;;;;;;;5088040;28;20032;-52
2021/10/27 02:17:27;;;;;;;1.75;1.42;;;;;;;;;;5087030;28;20027;-52
2021/10/27 02:19:53;;;;;;;2.08;1.42;;;;;;;;;;5086189;28;20031;-50
2021/10/27 02:22:19;;;;;;;2.30;2.00;;;;;;;;;;5087739;28;20032;-50
2021/10/27 02:24:45;;;;;;;3.45;1.70;;;;;;;;;;5088106;28;20032;-52
2021/10/27 02:27:12;;;;;;;1.50;1.27;;;;;;;;;;5087675;28;20410;-50
2021/10/27 02:29:38;;;;;;;1.65;1.30;;;;;;;;;;5087121;28;20710;-49
2021/10/27 02:32:04;;;;;;;2.08;1.50;;;;;;;;;;5087699;28;20020;-52
2021/10/27 02:34:30;;;;;;;1.95;1.52;;;;;;;;;;5086458;28;20024;-52
2021/10/27 02:36:56;;;;;;;2.28;1.67;;;;;;;;;;5082192;28;20098;-49
2021/10/27 02:39:22;;;;;;;1.92;1.30;;;;;;;;;;5067302;28;20112;-51
2021/10/27 02:41:49;;;;;;;3.20;1.80;;;;;;;;;;5067449;28;20127;-50
2021/10/27 02:44:15;;;;;;;2.50;1.73;;;;;;;;;;5067007;28;20063;-48
2021/10/27 02:46:41;;;;;;;3.30;1.65;;;;;;;;;;5076079;28;20384;-52
2021/10/27 02:49:07;;;;;;;1.83;1.52;;;;;;;;;;5077736;28;20035;-52
2021/10/27 02:51:33;;;;;;;2.65;1.65;;;;;;;;;;5067311;28;20063;-51
2021/10/27 02:53:59;;;;;;;3.45;1.80;;;;;;;;;;5067263;28;20021;-51
2021/10/27 02:56:25;;;;;;;2.47;1.55;;;;;;;;;;5066118;28;20499;-52
2021/10/27 02:58:51;;;;;;;2.47;1.88;;;;;;;;;;5073345;28;20391;-50
2021/10/27 03:01:18;;;;;;;2.45;1.80;;;;;;;;;;5087193;28;20110;-51
2021/10/27 03:03:44;;;;;;;1.83;1.65;;;;;;;;;;5086825;28;20741;-51
2021/10/27 03:06:10;;;;;;;3.38;1.58;;;;;;;;;;5086818;28;20085;-50
2021/10/27 03:08:36;;;;;;;2.47;1.67;;;;;;;;;;5086452;28;20077;-49
2021/10/27 03:11:02;;;;;;;2.15;1.60;;;;;;;;;;5086980;28;20032;-50
2021/10/27 03:13:28;;;;;;;1.92;1.58;;;;;;;;;;5087145;28;20112;-51
2021/10/27 03:15:54;;;;;;;2.25;1.67;;;;;;;;;;5087941;28;20032;-51
2021/10/27 03:18:21;;;;;;;3.28;1.80;;;;;;;;;;5071325;28;20028;-52
2021/10/27 03:20:47;;;;;;;2.33;1.95;;;;;;;;;;5066384;28;20064;-49
2021/10/27 03:23:13;;;;;;;1.80;1.70;;;;;;;;;;5066624;28;20032;-51
2021/10/27 03:25:40;;;;;;;4.55;2.03;;;;;;;;;;5066540;28;20070;-49
2021/10/27 03:28:06;;;;;;;2.78;1.60;;;;;;;;;;5066697;28;20021;-51
2021/10/27 03:30:32;;;;;;;1.63;1.52;;;;;;;;;;5066133;28;20032;-51
2021/10/27 03:32:58;;;;;;;2.00;1.70;;;;;;;;;;5066274;28;20116;-52
2021/10/27 03:35:25;;;;;;;2.83;1.70;;;;;;;;;;5066849;28;20039;-51
2021/10/27 03:37:51;;;;;;;3.13;1.70;;;;;;;;;;5066853;28;20036;-52
2021/10/27 03:40:17;;;;;;;1.73;1.60;;;;;;;;;;5079727;28;20036;-51
2021/10/27 03:42:44;;;;;;;2.25;1.58;;;;;;;;;;5086749;28;20118;-52
2021/10/27 03:45:10;;;;;;;1.98;1.67;;;;;;;;;;5086378;28;20039;-52
2021/10/27 03:47:37;;;;;;;2.45;1.60;;;;;;;;;;5086414;28;20426;-51
2021/10/27 03:50:04;;;;;;;2.17;1.55;;;;;;;;;;5085133;28;20036;-52
2021/10/27 03:52:30;;;;;;;2.35;1.70;;;;;;;;;;5086628;28;20021;-51
2021/10/27 03:54:56;;;;;;;2.92;1.95;;;;;;;;;;5086383;28;20020;-50
2021/10/27 03:57:22;;;;;;;2.10;1.63;;;;;;;;;;5087009;28;20047;-51
2021/10/27 03:59:48;;;;;;;2.25;2.00;;;;;;;;;;5070617;28;20395;-51
2021/10/27 04:02:15;;;;;;;3.60;2.00;;;;;;;;;;5065867;28;20136;-51
2021/10/27 04:04:41;;;;;;;2.97;1.83;;;;;;;;;;5066046;28;20040;-51
2021/10/27 04:07:07;;;;;;;2.22;1.80;;;;;;;;;;5066260;28;20020;-51
2021/10/27 04:09:33;;;;;;;2.60;2.00;;;;;;;;;;5065316;28;20632;-51
2021/10/27 04:11:59;;;;;;;3.58;2.10;;;;;;;;;;5065620;28;20020;-50
2021/10/27 04:14:25;;;;;;;2.67;2.08;;;;;;;;;;5066396;28;20028;-51
2021/10/27 04:16:51;;;;;;;2.50;2.15;;;;;;;;;;5069978;28;20020;-52
2021/10/27 04:19:17;;;;;;;2.50;1.90;;;;;;;;;;5083271;28;20039;-51
2021/10/27 04:21:43;;;;;;;2.15;1.83;;;;;;;;;;5086306;28;20106;-52
2021/10/27 04:24:09;;;;;;;2.40;1.67;;;;;;;;;;5083429;28;20422;-51
2021/10/27 04:26:35;;;;;;;2.33;1.98;;;;;;;;;;5085397;28;20383;-52
2021/10/27 04:29:02;;;;;;;2.58;1.85;;;;;;;;;;5082014;28;20052;-52
2021/10/27 04:31:28;;;;;;;2.30;1.92;;;;;;;;;;5069734;28;20024;-51
2021/10/27 04:33:54;;;;;;;2.40;1.92;;;;;;;;;;5085946;28;20097;-49
2021/10/27 04:36:20;;;;;;;2.30;1.77;;;;;;;;;;5086028;28;20458;-52
2021/10/27 04:38:46;;;;;;;2.38;1.92;;;;;;;;;;5081366;28;20021;-51
2021/10/27 04:41:12;;;;;;;2.67;1.90;;;;;;;;;;5065696;28;20427;-52
2021/10/27 04:43:38;;;;;;;2.95;1.88;;;;;;;;;;5065903;28;20043;-52
2021/10/27 04:46:04;;;;;;;2.00;1.60;;;;;;;;;;5065810;28;20017;-50
2021/10/27 04:48:31;;;;;;;2.53;1.80;;;;;;;;;;5066122;28;20047;-51
2021/10/27 04:50:57;;;;;;;2.88;2.10;;;;;;;;;;5084532;28;20020;-51
2021/10/27 04:53:25;;;;;;;1.75;1.60;;;;;;;;;;5085666;28;20403;-48
2021/10/27 04:55:54;;;;;;;1.73;1.52;;;;;;;;;;5084652;28;20081;-51
2021/10/27 04:58:21;;;;;;;7.32;4.35;;;;;;;;;;5085689;28;20033;-49
2021/10/27 05:00:47;;;;;;;8.80;5.43;;;;;;;;;;5084220;28;20072;-51
2021/10/27 05:03:13;;;;;;;6.85;4.45;;;;;;;;;;5068962;28;20084;-50
2021/10/27 05:05:52;;;;;;;6.70;4.30;;;;;;;;;;5069011;28;20037;-49
2021/10/27 05:08:22;;;;;;;5.43;4.00;;;;;;;;;;5069040;28;20028;-53
2021/10/27 05:10:48;;;;;;;6.28;3.33;;;;;;;;;;5068787;28;20039;-51
2021/10/27 05:13:14;;;;;;;4.72;3.20;;;;;;;;;;5068513;28;20035;-50
2021/10/27 05:15:40;;;;;;;4.07;2.75;;;;;;;;;;5083650;28;20487;-52
2021/10/27 05:18:08;;;;;;;3.17;2.28;;;;;;;;;;5088915;28;20052;-52
2021/10/27 05:20:34;;;;;;;3.10;2.50;;;;;;;;;;5072511;28;20051;-51
2021/10/27 05:23:00;;;;;;;3.75;2.45;;;;;;;;;;5068926;28;20081;-52
2021/10/27 05:25:26;;;;;;;3.22;2.45;;;;;;;;;;5067988;28;20482;-49
2021/10/27 05:27:52;;;;;;;2.55;2.00;;;;;;;;;;5068443;28;20148;-52
2021/10/27 05:30:19;;;;;;;2.30;2.10;;;;;;;;;;5067717;28;20094;-52
2021/10/27 05:32:45;;;;;;;4.78;2.30;;;;;;;;;;5072266;28;20038;-49
2021/10/27 05:35:11;;;;;;;2.50;2.08;;;;;;;;;;5070804;28;20114;-52
2021/10/27 05:37:37;;;;;;;2.72;2.35;;;;;;;;;;5067459;28;20039;-51
2021/10/27 05:40:03;;;;;;;2.83;2.00;;;;;;;;;;5067703;28;20464;-51
2021/10/27 05:42:32;;;;;;;2.95;2.42;;;;;;;;;;5071712;28;20173;-52
2021/10/27 05:45:02;;;;;;;2.95;2.50;;;;;;;;;;5086077;28;20178;-51
2021/10/27 05:47:29;;;;;;;2.33;1.85;;;;;;;;;;5086000;28;20027;-51
2021/10/27 05:50:19;;;;;;;3.60;2.60;;;;;;;;;;5086981;28;20213;-51
2021/10/27 05:55:33;;;;;;;3.15;2.33;;;;;;;;;;5086108;28;20051;-52
2021/10/27 05:57:59;;;;;;;3.47;2.65;;;;;;;;;;5084249;28;20028;-52
2021/10/27 06:00:26;;;;;;;3.42;2.67;;;;;;;;;;5086944;28;20061;-51
2021/10/27 06:02:52;;;;;;;3.58;2.35;;;;;;;;;;5088486;28;20063;-51
2021/10/27 06:05:18;;;;;;;3.42;2.67;;;;;;;;;;5085918;28;20495;-49
2021/10/27 06:07:44;;;;;;;3.70;2.58;;;;;;;;;;5088258;28;20028;-48
2021/10/27 06:10:13;;;;;;;2.83;2.35;;;;;;;;;;5075156;28;20032;-50
2021/10/27 06:12:40;;;;;;;3.92;3.03;;;;;;;;;;5067465;28;20039;-52
2021/10/27 06:15:06;;;;;;;3.88;2.92;;;;;;;;;;5067977;28;20028;-52
2021/10/27 06:17:32;;;;;;;2.97;2.42;;;;;;;;;;5075831;28;20024;-52
2021/10/27 06:19:58;;;;;;;3.53;2.85;;;;;;;;;;5088254;28;20070;-51
2021/10/27 06:22:24;;;;;;;3.83;3.05;;;;;;;;;;5080875;28;20547;-52
2021/10/27 06:24:53;;;;;;;3.45;2.85;;;;;;;;;;5074263;28;20021;-51
2021/10/27 06:27:20;;;;;;;3.72;2.75;;;;;;;;;;5075427;28;20353;-52
2021/10/27 06:29:51;;;;;;;3.55;2.80;;;;;;;;;;5087353;28;20504;-53
2021/10/27 06:35:00;;;;;;;3.22;2.83;;;;;;;;;;5068981;28;20648;-50
2021/10/27 06:48:16;;;;;;;3.58;2.72;;;;;;;;;;5078877;28;20039;-49
2021/10/27 06:50:43;;;;;;;2.88;2.42;;;;;;;;;;5067298;28;20529;-49
2021/10/27 06:53:10;;;;;;;2.65;2.30;;;;;;;;;;5084768;28;20616;-51
2021/10/27 06:55:39;;;;;;;2.67;2.10;;;;;;;;;;5080288;28;20028;-49
2021/10/27 06:58:06;;;;;;;2.55;2.28;;;;;;;;;;5104190;28;20032;-52
2021/10/27 07:01:07;;;;;;;2.28;2.08;;;;;;;;;;5098269;28;20028;-52
2021/10/27 07:03:45;;;;;;;3.67;2.90;;;;;;;;;;5072975;28;20032;-50
2021/10/27 07:17:07;;;;;;;3.22;2.63;;;;;;;;;;5076831;28;19918;-50
2021/10/27 07:19:33;;;;;;;3.25;2.95;;;;;;;;;;5072337;28;20107;-52
2021/10/27 07:21:59;;;;;;;3.55;2.70;;;;;;;;;;5073430;28;20528;-53
2021/10/27 07:24:27;;;;;;;3.47;2.63;;;;;;;;;;5078008;28;20036;-49
2021/10/27 07:26:54;;;;;;;3.67;2.30;;;;;;;;;;5065249;28;20025;-49
2021/10/27 07:29:21;;;;;;;4.20;3.05;;;;;;;;;;5064773;28;20449;-52
2021/10/27 07:31:49;;;;;;;4.88;3.20;;;;;;;;;;5065556;28;20020;-51
2021/10/27 07:34:16;;;;;;;2.92;2.50;;;;;;;;;;5066646;28;20328;-51
2021/10/27 07:42:13;;;;;;;2.75;2.05;;;;;;;;;;5064934;28;20039;-51
2021/10/27 07:44:39;;;;;;;3.13;2.55;;;;;;;;;;5063287;28;20032;-50
2021/10/27 07:47:06;;;;;;;2.50;2.20;;;;;;;;;;5068510;28;20248;-51
2021/10/27 07:49:33;;;;;;;3.22;2.53;;;;;;;;;;5084900;28;20028;-51
2021/10/27 07:52:00;;;;;;;3.10;2.38;;;;;;;;;;5084845;28;20034;-50
2021/10/27 07:54:26;;;;;;;2.50;2.08;;;;;;;;;;5083729;28;20161;-52
2021/10/27 07:56:54;;;;;;;3.28;2.25;;;;;;;;;;5085212;28;20028;-49
2021/10/27 07:59:20;;;;;;;2.33;1.98;;;;;;;;;;5084476;28;20025;-51
2021/10/27 08:01:46;;;;;;;3.92;2.88;;;;;;;;;;5067691;28;20094;-49
2021/10/27 08:04:14;;;;;;;3.38;2.47;;;;;;;;;;5064888;28;20488;-50
2021/10/27 08:06:40;;;;;;;2.75;2.35;;;;;;;;;;5065368;28;20498;-51
2021/10/27 08:09:06;;;;;;;3.10;1.90;;;;;;;;;;5064145;28;20519;-51
2021/10/27 08:11:32;;;;;;;2.92;2.10;;;;;;;;;;5064707;28;20464;-50
2021/10/27 08:13:58;;;;;;;2.30;1.70;;;;;;;;;;5067283;28;20066;-49
2021/10/27 08:16:25;;;;;;;2.92;2.38;;;;;;;;;;5083437;28;20035;-52
2021/10/27 08:18:51;;;;;;;3.60;2.28;;;;;;;;;;5080213;28;20078;-49
2021/10/27 08:21:17;;;;;;;3.00;2.28;;;;;;;;;;5065023;28;20670;-50
2021/10/27 08:23:46;;;;;;;2.85;2.40;;;;;;;;;;5070623;28;20036;-52
2021/10/27 08:26:17;;;;;;;2.17;1.70;;;;;;;;;;5064428;28;20495;-49
2021/10/27 08:28:52;;;;;;;2.53;1.95;;;;;;;;;;5070334;28;20315;-51
2021/10/27 08:34:34;;;;;;;2.80;2.30;;;;;;;;;;5073788;28;20029;-49
2021/10/27 08:37:00;;;;;;;3.57;2.90;;;;;;;;;;5079736;28;20102;-50
2021/10/27 08:39:27;;;;;;;2.75;2.10;;;;;;;;;;5089049;28;20467;-52
2021/10/27 08:41:53;;;;;;;2.80;2.33;;;;;;;;;;5088658;28;20024;-51
2021/10/27 08:44:19;;;;;;;3.92;2.50;;;;;;;;;;5087412;28;20434;-51
2021/10/27 08:46:46;;;;;;;2.35;1.88;;;;;;;;;;5088375;28;20025;-49
2021/10/27 08:49:15;;;;;;;2.17;1.90;;;;;;;;;;5087530;28;20507;-51
2021/10/27 08:51:42;;;;;;;2.90;2.20;;;;;;;;;;5088536;28;20020;-51
2021/10/27 08:54:09;;;;;;;2.33;2.08;;;;;;;;;;5087881;28;20281;-48
2021/10/27 08:56:38;;;;;;;2.13;1.85;;;;;;;;;;5088255;28;20020;-53
2021/10/27 08:59:13;;;;;;;3.53;2.60;;;;;;;;;;5087967;28;20035;-48
2021/10/27 09:04:45;;;;;;;3.03;2.35;;;;;;;;;;5087749;28;20028;-49
2021/10/27 09:40:05;;;;;;;3.85;2.97;;;;;;;;;;5082282;28;20043;-51
2021/10/27 10:04:44;;;;;;;5.07;3.78;;;;;;;;;;5067691;28;20032;-51
2021/10/27 10:07:11;;;;;;;5.07;3.03;;;;;;;;;;5067688;28;20460;-51
2021/10/27 10:09:40;;;;;;;4.90;3.30;;;;;;;;;;5067633;28;20109;-49
2021/10/27 10:12:06;;;;;;;4.47;3.08;;;;;;;;;;5071423;28;20017;-50
2021/10/27 10:14:34;;;;;;;3.58;2.65;;;;;;;;;;5072587;28;20480;-52
2021/10/27 10:17:02;;;;;;;5.55;3.08;;;;;;;;;;5067346;28;20111;-50
2021/10/27 10:19:33;;;;;;;3.88;2.60;;;;;;;;;;5069301;28;20411;-49
2021/10/27 10:22:00;;;;;;;4.13;3.10;;;;;;;;;;5078587;28;20024;-52
2021/10/27 10:24:29;;;;;;;3.22;2.58;;;;;;;;;;5068601;28;20146;-49
2021/10/27 10:26:55;;;;;;;5.78;3.83;;;;;;;;;;5067652;28;20400;-51
2021/10/27 10:29:38;;;;;;;6.18;3.80;;;;;;;;;;5080619;28;20085;-50
2021/10/27 10:32:25;;;;;;;5.35;3.92;;;;;;;;;;5087276;28;20035;-51
2021/10/27 10:34:54;;;;;;;5.80;4.20;;;;;;;;;;5087111;28;20035;-51
2021/10/27 10:40:31;;;;;;;4.68;3.17;;;;;;;;;;5071666;28;20037;-49
2021/10/27 11:23:02;;;;;;;3.83;2.88;;;;;;;;;;5086601;28;20414;-48
2021/10/27 11:25:43;;;;;;;4.75;3.33;;;;;;;;;;5086910;28;20426;-48
2021/10/27 11:45:03;;;;;;;2.88;2.38;;;;;;;;;;5059273;28;20179;-52
2021/10/27 11:47:58;;;;;;;4.70;3.20;;;;;;;;;;5065151;28;20075;-50
2021/10/27 11:50:30;;;;;;;3.45;3.00;;;;;;;;;;5065605;28;20040;-48
2021/10/27 11:52:57;;;;;;;5.05;3.55;;;;;;;;;;5074401;28;20091;-50
2021/10/27 11:55:28;;;;;;;4.10;3.17;;;;;;;;;;5087074;28;20031;-48
2021/10/27 11:57:54;;;;;;;4.18;3.08;;;;;;;;;;5087030;28;20034;-51
2021/10/27 12:00:27;;;;;;;5.32;3.05;;;;;;;;;;5085489;28;20458;-49
2021/10/27 12:03:06;;;;;;;3.78;2.85;;;;;;;;;;5087084;28;20024;-51
2021/10/27 12:05:39;;;;;;;3.97;3.17;;;;;;;;;;5086665;28;20474;-49
2021/10/27 12:18:57;;;;;;;3.75;2.85;;;;;;;;;;5078857;28;20032;-51
2021/10/27 12:21:25;;;;;;;3.58;2.80;;;;;;;;;;5080187;28;20438;-49
2021/10/27 12:23:51;;;;;;;4.32;3.40;;;;;;;;;;5091481;28;21259;-50
2021/10/27 12:26:19;;;;;;;3.95;2.90;;;;;;;;;;5090411;28;20475;-52
2021/10/27 12:28:45;;;;;;;3.67;2.95;;;;;;;;;;5082191;28;20036;-50
2021/10/27 12:31:18;;;;;;;4.55;2.95;;;;;;;;;;5070376;28;20511;-50
2021/10/27 12:33:45;;;;;;;3.90;2.90;;;;;;;;;;5070797;28;20069;-51
2021/10/27 12:36:12;;;;;;;3.75;2.90;;;;;;;;;;5070308;28;20039;-52
2021/10/27 12:38:39;;;;;;;3.25;2.53;;;;;;;;;;5070725;28;20037;-52
2021/10/27 12:41:21;;;;;;;3.65;3.00;;;;;;;;;;5079913;28;20157;-52
2021/10/27 12:43:48;;;;;;;3.13;2.72;;;;;;;;;;5090088;28;20484;-49
2021/10/27 12:46:20;;;;;;;3.75;2.78;;;;;;;;;;5089085;28;20043;-50
2021/10/27 12:48:47;;;;;;;3.72;2.95;;;;;;;;;;5078259;28;20524;-52
2021/10/27 12:51:13;;;;;;;3.60;2.78;;;;;;;;;;5069097;28;20017;-49
2021/10/27 12:53:44;;;;;;;3.13;2.20;;;;;;;;;;5069798;28;20422;-49
2021/10/27 12:56:15;;;;;;;4.35;2.97;;;;;;;;;;5067778;28;20033;-49
2021/10/27 12:58:46;;;;;;;5.97;3.65;;;;;;;;;;5069102;28;20032;-51
2021/10/27 13:22:25;;;;;;;3.90;3.05;;;;;;;;;;5089449;28;20028;-51
2021/10/27 13:30:16;;;;;;;4.25;2.83;;;;;;;;;;5068151;28;20046;-52
2021/10/27 13:32:51;;;;;;;3.95;2.58;;;;;;;;;;5066354;28;20446;-51
2021/10/27 13:35:17;;;;;;;3.08;2.38;;;;;;;;;;5068293;28;20028;-49
2021/10/27 13:37:43;;;;;;;3.85;2.55;;;;;;;;;;5088012;28;20020;-51
2021/10/27 13:40:10;;;;;;;4.60;3.25;;;;;;;;;;5088430;28;20036;-49
2021/10/27 14:09:50;;;;;;;3.17;2.40;;;;;;;;;;5068265;28;20198;-52
2021/10/27 14:15:16;;;;;;;4.18;2.90;;;;;;;;;;5086223;28;20556;-52
2021/10/27 14:48:15;;;;;;;2.90;2.20;;;;;;;;;;5067985;28;20038;-51
2021/10/27 15:19:35;;;;;;;4.10;2.00;;;;;;;;;;5086772;28;20089;-49
2021/10/27 15:20:57;;;;;;;2.35;1.98;;;;;;;;;;5066604;28;20431;-50
2021/10/27 15:28:43;;;;;;;3.42;2.05;;;;;;;;;;5064177;28;20112;-51
2021/10/27 15:34:07;;;;;;;2.53;1.90;;;;;;;;;;5066589;28;20036;-52
2021/10/27 15:52:47;;;;;;;2.28;1.80;;;;;;;;;;5072830;28;20043;-52
2021/10/27 15:55:13;;;;;;;2.05;1.85;;;;;;;;;;5085786;28;20077;-51
2021/10/27 15:57:40;;;;;;;3.33;1.88;;;;;;;;;;5076658;28;20398;-50
2021/10/27 16:00:06;;;;;;;2.42;1.73;;;;;;;;;;5069326;28;20094;-51
2021/10/27 16:02:32;;;;;;;2.17;1.80;;;;;;;;;;5069718;28;20036;-51
2021/10/27 16:04:59;;;;;;;2.72;2.05;;;;;;;;;;5075822;28;20518;-51
2021/10/27 16:07:27;;;;;;;2.03;1.83;;;;;;;;;;5066613;28;20017;-53
2021/10/27 16:09:59;;;;;;;2.42;1.88;;;;;;;;;;5081343;28;20028;-51
2021/10/27 16:12:27;;;;;;;2.42;2.15;;;;;;;;;;5080391;28;20024;-51
2021/10/27 16:14:54;;;;;;;3.47;2.50;;;;;;;;;;5072103;28;20089;-51
2021/10/27 16:17:21;;;;;;;2.78;2.15;;;;;;;;;;5077189;28;20021;-49
2021/10/27 16:19:48;;;;;;;3.78;2.33;;;;;;;;;;5066051;28;20025;-52
2021/10/27 16:22:14;;;;;;;2.20;2.00;;;;;;;;;;5065108;28;20033;-52
2021/10/27 16:24:40;;;;;;;3.60;2.40;;;;;;;;;;5064649;28;20434;-52
2021/10/27 16:27:07;;;;;;;4.72;2.08;;;;;;;;;;5072460;28;20043;-52
2021/10/27 16:29:33;;;;;;;2.53;2.22;;;;;;;;;;5072102;28;20440;-52
2021/10/27 16:31:59;;;;;;;2.85;2.20;;;;;;;;;;5072740;28;20051;-50
2021/10/27 16:34:25;;;;;;;2.10;1.90;;;;;;;;;;5066769;28;20395;-51
2021/10/27 16:36:51;;;;;;;3.67;2.00;;;;;;;;;;5067660;28;20407;-52
2021/10/27 16:39:17;;;;;;;3.33;2.55;;;;;;;;;;5075697;28;20043;-52
2021/10/27 16:41:44;;;;;;;4.00;2.55;;;;;;;;;;5065900;28;20031;-51
2021/10/27 16:44:12;;;;;;;3.10;2.15;;;;;;;;;;5077726;28;20038;-51
2021/10/27 16:46:38;;;;;;;3.65;2.63;;;;;;;;;;5069914;28;20024;-51
2021/10/27 16:49:04;;;;;;;4.20;2.53;;;;;;;;;;5071342;28;20029;-52
2021/10/27 16:51:30;;;;;;;3.20;2.42;;;;;;;;;;5078097;28;20032;-52
2021/10/27 16:54:00;;;;;;;3.95;2.50;;;;;;;;;;5069182;28;20032;-52
2021/10/27 16:56:26;;;;;;;4.03;2.58;;;;;;;;;;5089041;28;20522;-51
2021/10/27 16:58:52;;;;;;;3.60;2.65;;;;;;;;;;5073231;28;20021;-52
2021/10/27 17:01:19;;;;;;;3.30;2.53;;;;;;;;;;5066023;28;20098;-52
2021/10/27 17:03:45;;;;;;;3.20;2.47;;;;;;;;;;5076806;28;20024;-52
2021/10/27 17:06:11;;;;;;;3.63;2.50;;;;;;;;;;5083404;28;20078;-51
2021/10/27 17:08:39;;;;;;;3.35;2.72;;;;;;;;;;5082306;28;20995;-52
2021/10/27 17:11:06;;;;;;;3.70;2.70;;;;;;;;;;5080216;28;20028;-50
2021/10/27 17:13:33;;;;;;;3.00;2.63;;;;;;;;;;5080694;28;20044;-51
2021/10/27 17:16:00;;;;;;;3.75;2.58;;;;;;;;;;5074177;28;20039;-51
2021/10/27 17:18:31;;;;;;;4.22;3.25;;;;;;;;;;5069261;28;20056;-51
2021/10/27 17:20:59;;;;;;;5.65;3.90;;;;;;;;;;5088536;28;20467;-51
2021/10/27 17:23:31;;;;;;;5.38;3.88;;;;;;;;;;5088026;28;20466;-51
2021/10/27 17:25:58;;;;;;;4.88;3.50;;;;;;;;;;5086925;28;20042;-50
2021/10/27 17:28:24;;;;;;;5.90;4.05;;;;;;;;;;5085699;28;20028;-51
2021/10/27 17:30:51;;;;;;;4.95;3.55;;;;;;;;;;5080334;28;20414;-52
2021/10/27 17:33:17;;;;;;;4.20;3.00;;;;;;;;;;5073690;28;20471;-51
2021/10/27 17:35:44;;;;;;;4.72;3.45;;;;;;;;;;5077025;28;20047;-49
2021/10/27 17:38:11;;;;;;;4.20;3.22;;;;;;;;;;5076412;28;20028;-51
2021/10/27 17:40:41;;;;;;;5.18;3.38;;;;;;;;;;5079993;28;20542;-49
2021/10/27 17:43:10;;;;;;;4.72;3.80;;;;;;;;;;5079589;28;20089;-52
2021/10/27 17:45:38;;;;;;;4.40;3.10;;;;;;;;;;5088871;28;20111;-51
2021/10/27 17:48:10;;;;;;;4.53;3.17;;;;;;;;;;5075058;28;20478;-48
2021/10/27 18:00:54;;;;;;;7.68;5.22;;;;;;;;;;5075016;28;20089;-51
2021/10/27 18:03:20;;;;;;;7.82;5.05;;;;;;;;;;5076552;28;20447;-51
2021/10/27 18:05:46;;;;;;;9.77;5.40;;;;;;;;;;5075320;28;20078;-51
2021/10/27 18:08:16;;;;;;;11.65;6.13;;;;;;;;;;5080194;28;20107;-51
2021/10/27 18:10:44;;;;;;;10.23;5.40;;;;;;;;;;5080520;28;20035;-50
2021/10/27 18:13:16;;;;;;;10.13;5.72;;;;;;;;;;5071625;28;20016;-51
2021/10/27 18:15:46;;;;;;;10.73;5.97;;;;;;;;;;5078948;28;20402;-51
2021/10/27 18:18:17;;;;;;;9.90;5.68;;;;;;;;;;5069885;28;20032;-52
2021/10/27 18:20:45;;;;;;;6.82;4.72;;;;;;;;;;5080383;28;20500;-51
2021/10/27 18:23:32;;;;;;;7.97;4.97;;;;;;;;;;5072580;28;20044;-52
2021/10/27 18:37:12;;;;;;;6.43;4.78;;;;;;;;;;5071718;28;20043;-49
2021/10/27 18:39:59;;;;;;;6.80;5.30;;;;;;;;;;5067903;28;20054;-48
2021/10/27 18:42:32;;;;;;;7.97;5.05;;;;;;;;;;5067306;28;20798;-48
2021/10/27 18:44:58;;;;;;;7.22;5.32;;;;;;;;;;5070537;28;20032;-50
2021/10/27 18:47:28;;;;;;;6.93;5.38;;;;;;;;;;5084261;28;20028;-49
2021/10/27 18:49:54;;;;;;;7.45;5.43;;;;;;;;;;5086821;28;20081;-47
2021/10/27 18:55:04;;;;;;;8.38;5.53;;;;;;;;;;5072488;28;20039;-51
2021/10/27 19:00:47;;;;;;;7.22;5.40;;;;;;;;;;5068215;28;20777;-51
2021/10/27 19:15:59;;;;;;;7.63;5.03;;;;;;;;;;5085379;28;20043;-51
2021/10/27 19:18:26;;;;;;;6.53;4.95;;;;;;;;;;5070440;28;20074;-51
2021/10/27 19:20:54;;;;;;;7.65;4.90;;;;;;;;;;5067470;28;20041;-49
2021/10/27 19:23:21;;;;;;;9.07;5.38;;;;;;;;;;5080218;28;20036;-50
2021/10/27 20:19:32;;;;;;;9.77;6.57;;;;;;;;;;5079433;28;20600;-52
2021/10/27 20:49:30;;;;;;;9.45;6.43;;;;;;;;;;5069205;28;20644;-51
2021/10/27 20:54:24;;;;;;;10.35;6.65;;;;;;;;;;5073030;28;20071;-48
2021/10/27 20:56:55;;;;;;;9.73;6.45;;;;;;;;;;5068994;28;20020;-51
2021/10/27 21:02:18;;;;;;;9.25;6.03;;;;;;;;;;5078159;28;20042;-51
2021/10/27 21:12:44;;;;;;;9.85;6.32;;;;;;;;;;5069740;28;20034;-48
2021/10/27 21:15:10;;;;;;;11.25;6.45;;;;;;;;;;5077107;28;20032;-49
2021/10/27 21:17:36;;;;;;;9.35;6.07;;;;;;;;;;5089346;28;20107;-51
2021/10/27 21:20:05;;;;;;;8.00;6.15;;;;;;;;;;5089391;28;20399;-51
2021/10/27 21:22:31;;;;;;;10.45;6.68;;;;;;;;;;5088969;28;20094;-50
2021/10/27 21:24:57;;;;;;;9.00;6.10;;;;;;;;;;5087335;28;20036;-51
2021/10/27 21:27:48;;;;;;;10.15;6.55;;;;;;;;;;5088310;28;20022;-50
2021/10/27 21:33:25;;;;;;;9.63;6.20;;;;;;;;;;5082914;28;20040;-50
2021/10/27 21:43:54;;;;;;;13.43;9.05;;;;;;;;;;5088709;28;20046;-50
2021/10/27 21:46:21;;;;;;;12.57;8.50;;;;;;;;;;5075155;28;20916;-49
2021/10/27 21:48:47;;;;;;;11.68;7.55;;;;;;;;;;5067915;28;20054;-50
2021/10/27 21:51:14;;;;;;;12.13;7.93;;;;;;;;;;5067909;28;20052;-49
2021/10/27 21:53:41;;;;;;;11.45;7.50;;;;;;;;;;5068465;28;20033;-49
2021/10/27 21:56:13;;;;;;;12.25;7.70;;;;;;;;;;5067262;28;20093;-51
2021/10/27 21:58:40;;;;;;;13.73;7.88;;;;;;;;;;5068508;28;20593;-51
2021/10/27 22:01:06;;;;;;;11.80;7.10;;;;;;;;;;5068221;28;20102;-49
2021/10/27 22:03:33;;;;;;;12.90;7.60;;;;;;;;;;5071355;28;20576;-51
2021/10/27 22:05:59;;;;;;;9.57;6.80;;;;;;;;;;5070411;28;20036;-48
2021/10/27 22:08:25;;;;;;;10.07;6.70;;;;;;;;;;5084111;28;20024;-52
2021/10/27 22:10:51;;;;;;;9.77;6.53;;;;;;;;;;5088369;28;20032;-50
2021/10/27 22:13:18;;;;;;;9.00;6.63;;;;;;;;;;5076939;28;20032;-49
2021/10/27 22:15:45;;;;;;;8.60;6.43;;;;;;;;;;5067858;28;20071;-51